East End, Ohio
Current Conditions -  °F | °C
As of 9:53 PM on Saturday 24 Jan 2015 (Local Time) from KLUK Reporting Station
Clear Clear  
Wind Chill: 22°   Ceiling: Unl
Heat Index: 27°   Visibility: 7mi
Dew Point: 25°   Wind: 5mph
Humidity: 92%   Direction: 220°SW
Pressure: 29.83"   Gusts: NA
Location:  39.1107°N, 84.4215°W
Report Text: KLUK 250253Z 22004KT 7SM CLR M03/M04 A2983 RMK AO2 SLP105 T10281039 51010
Loading
Personal Weather Stations






























Interactive Weather Map New forecast layout! Learn more

10-Day Weather Forecast

Advertisements
Track Severe Weather on mobile